createdAt,value
2023-05-04T05:13:04.742Z,31.40
2023-05-04T05:15:32.219Z,31.46
2023-05-04T05:17:59.463Z,31.37
2023-05-04T05:20:26.878Z,31.44
2023-05-04T05:22:56.160Z,31.57
2023-05-04T05:25:24.570Z,31.56
2023-05-04T05:27:51.760Z,31.58
2023-05-04T05:30:20.063Z,31.59
2023-05-04T05:32:49.199Z,31.62
2023-05-04T05:35:16.868Z,31.52
2023-05-04T05:37:52.300Z,31.66
2023-05-04T05:40:19.577Z,31.67
2023-05-04T05:42:49.697Z,31.67
2023-05-04T05:45:16.976Z,31.56
2023-05-04T05:47:44.097Z,31.77
2023-05-04T05:50:14.058Z,31.81
2023-05-04T05:52:42.011Z,31.84
2023-05-04T05:55:09.673Z,31.70
2023-05-04T05:57:36.834Z,31.71
2023-05-04T06:00:05.589Z,31.95
2023-05-04T06:02:32.958Z,31.98
2023-05-04T06:05:00.317Z,31.94
2023-05-04T06:07:30.302Z,32.04
2023-05-04T06:09:57.558Z,32.06
2023-05-04T06:12:24.758Z,32.06
2023-05-04T06:14:52.020Z,32.10
2023-05-04T06:17:19.455Z,32.13
2023-05-04T06:19:48.091Z,31.96
2023-05-04T06:22:16.545Z,32.23
2023-05-04T06:24:43.720Z,32.31
2023-05-04T06:27:11.247Z,32.15
2023-05-04T06:29:40.601Z,32.44
2023-05-04T06:32:10.123Z,32.50
2023-05-04T06:34:37.431Z,32.54
2023-05-04T06:37:04.796Z,32.62
2023-05-04T06:39:31.955Z,32.68
2023-05-04T06:41:59.076Z,32.74
2023-05-04T06:44:26.292Z,32.80
2023-05-04T06:46:54.224Z,32.86
2023-05-04T06:49:21.362Z,32.92
2023-05-04T06:51:48.636Z,32.85
2023-05-04T06:54:15.800Z,33.01
2023-05-04T06:56:45.876Z,33.07
2023-05-04T06:59:13.594Z,33.12
2023-05-04T07:01:40.889Z,33.18
2023-05-04T07:04:08.138Z,33.24
2023-05-04T07:06:35.328Z,33.31
2023-05-04T07:09:02.632Z,33.39
2023-05-04T07:11:31.245Z,33.47
2023-05-04T07:13:59.395Z,33.54
2023-05-04T07:16:27.229Z,33.63
2023-05-04T07:18:54.347Z,33.70
2023-05-04T07:21:27.608Z,33.78
2023-05-04T07:23:56.158Z,33.84
2023-05-04T07:26:23.750Z,33.73
2023-05-04T07:28:51.175Z,33.99
2023-05-04T07:31:18.432Z,34.06
2023-05-04T07:33:46.069Z,34.14
2023-05-04T07:36:13.143Z,34.19
2023-05-04T07:38:40.168Z,34.20
2023-05-04T07:41:07.595Z,34.21
2023-05-04T07:43:34.698Z,34.24
2023-05-04T07:46:01.909Z,34.27
2023-05-04T07:48:29.228Z,34.14
2023-05-04T07:50:56.373Z,34.26
2023-05-04T07:53:25.666Z,34.33
2023-05-04T07:55:54.738Z,34.40
2023-05-04T07:58:21.904Z,34.45
2023-05-04T08:00:49.039Z,34.36
2023-05-04T08:03:16.945Z,34.57
2023-05-04T08:05:44.217Z,34.52
2023-05-04T08:08:11.582Z,34.67
2023-05-04T08:10:39.145Z,34.72
2023-05-04T08:13:06.357Z,34.81
2023-05-04T08:15:33.452Z,34.84
2023-05-04T08:18:00.741Z,34.83
2023-05-04T08:20:27.920Z,34.89
2023-05-04T08:22:55.101Z,34.99
2023-05-04T08:25:25.741Z,35.10
2023-05-04T08:27:53.571Z,34.98
2023-05-04T08:30:20.903Z,35.16
2023-05-04T08:32:48.857Z,35.27
2023-05-04T08:35:16.560Z,35.27
2023-05-04T08:37:43.672Z,35.15
2023-05-04T08:40:12.898Z,35.29
2023-05-04T08:42:40.649Z,35.41
2023-05-04T08:45:08.549Z,35.27
2023-05-04T08:47:35.830Z,35.31
2023-05-04T08:50:03.004Z,35.37
2023-05-04T08:52:30.563Z,35.43
2023-05-04T08:54:58.928Z,35.26
2023-05-04T08:57:27.065Z,35.46
2023-05-04T08:59:55.814Z,35.35
2023-05-04T09:02:24.505Z,35.47
2023-05-04T09:04:52.933Z,35.57
2023-05-04T09:07:24.702Z,35.65
2023-05-04T09:09:52.689Z,35.83
2023-05-04T09:12:19.984Z,35.85
2023-05-04T09:14:47.293Z,35.99
2023-05-04T09:17:18.141Z,35.88
2023-05-04T09:19:45.631Z,36.12
2023-05-04T09:22:19.681Z,36.16
2023-05-04T09:24:46.920Z,36.19
2023-05-04T09:27:18.801Z,36.29
2023-05-04T09:29:54.546Z,36.32
2023-05-04T09:32:21.681Z,36.32
2023-05-04T09:34:53.349Z,36.49
2023-05-04T09:37:21.751Z,36.53
2023-05-04T09:39:58.552Z,36.44
2023-05-04T09:42:27.245Z,36.78
2023-05-04T09:45:11.332Z,36.95
2023-05-04T09:47:40.411Z,37.08
2023-05-04T09:50:16.220Z,37.21
2023-05-04T09:52:46.307Z,37.43
2023-05-04T09:55:15.133Z,37.69
2023-05-04T09:57:44.530Z,37.95
2023-05-04T10:00:13.794Z,38.13
2023-05-04T10:02:41.079Z,38.39
2023-05-04T10:05:09.778Z,38.83
2023-05-04T10:07:37.345Z,39.36
2023-05-04T10:10:06.414Z,39.80
2023-05-04T10:12:33.610Z,40.17
2023-05-04T10:15:02.094Z,40.69
2023-05-04T10:18:04.554Z,41.11
2023-05-04T10:20:37.886Z,41.41
2023-05-04T10:23:14.073Z,41.72
2023-05-04T10:25:47.288Z,42.11
2023-05-04T10:28:37.666Z,42.29
2023-05-04T10:31:06.686Z,42.47
2023-05-04T10:33:43.534Z,42.43
2023-05-04T10:36:11.943Z,42.51
2023-05-04T10:38:40.161Z,42.59
2023-05-04T10:41:17.837Z,42.76
2023-05-04T10:43:49.302Z,42.71
2023-05-04T10:46:21.629Z,42.72
2023-05-04T10:48:49.553Z,42.72
2023-05-04T10:51:21.311Z,42.87
2023-05-04T10:53:49.058Z,43.00
2023-05-04T10:56:28.826Z,42.98
2023-05-04T10:58:56.333Z,42.98
2023-05-04T11:01:24.618Z,43.02
2023-05-04T11:03:53.064Z,42.97
2023-05-04T11:06:24.236Z,43.03
2023-05-04T11:09:03.566Z,43.32
2023-05-04T11:11:36.872Z,43.39
2023-05-04T11:14:04.132Z,43.37
2023-05-04T11:16:32.642Z,43.18
2023-05-04T11:19:12.879Z,43.15
2023-05-04T11:21:41.295Z,42.98
2023-05-04T11:24:08.785Z,42.97
2023-05-04T11:26:48.728Z,43.08
2023-05-04T11:29:16.587Z,43.04
2023-05-04T11:31:54.936Z,43.38
2023-05-04T11:34:22.532Z,43.53
2023-05-04T11:36:49.973Z,43.63
2023-05-04T11:39:20.271Z,43.40
2023-05-04T11:41:48.048Z,43.53
2023-05-04T11:44:16.550Z,43.58
2023-05-04T11:46:44.127Z,43.60
2023-05-04T11:49:12.563Z,43.70
2023-05-04T11:51:42.438Z,43.77
2023-05-04T11:54:20.261Z,43.78
2023-05-04T11:56:51.454Z,43.91
2023-05-04T11:59:20.914Z,43.98
2023-05-04T12:01:49.916Z,44.00
2023-05-04T12:04:17.221Z,43.96
2023-05-04T12:06:46.784Z,43.92
2023-05-04T12:09:16.933Z,43.88
2023-05-04T12:11:55.565Z,44.00
2023-05-04T12:14:24.819Z,44.09
2023-05-04T12:16:57.955Z,44.28
2023-05-04T12:19:25.303Z,44.38
2023-05-04T12:21:58.612Z,44.34
2023-05-04T12:24:28.063Z,44.47
2023-05-04T12:26:55.331Z,44.49
2023-05-04T12:29:32.819Z,44.45
2023-05-04T12:32:02.548Z,44.59
2023-05-04T12:34:33.841Z,44.62
2023-05-04T12:37:01.035Z,44.76
2023-05-04T12:39:33.098Z,44.74
2023-05-04T12:42:01.173Z,44.73
2023-05-04T12:44:31.662Z,44.77
2023-05-04T12:46:58.952Z,44.82
2023-05-04T12:49:26.178Z,44.84
2023-05-04T12:51:56.741Z,44.85
2023-05-04T12:54:27.353Z,44.94
2023-05-04T12:57:02.092Z,44.68
2023-05-04T12:59:31.794Z,44.78
2023-05-04T13:01:58.930Z,44.74
2023-05-04T13:04:30.288Z,44.56
2023-05-04T13:06:57.469Z,44.53
2023-05-04T13:09:26.141Z,44.49
2023-05-04T13:11:53.305Z,44.37
2023-05-04T13:14:23.620Z,44.23
2023-05-04T13:16:51.182Z,44.19
2023-05-04T13:19:19.966Z,44.12
2023-05-04T13:21:49.564Z,44.10
2023-05-04T13:24:19.176Z,44.13
2023-05-04T13:26:48.854Z,44.16
2023-05-04T13:29:16.058Z,44.24
2023-05-04T13:31:45.736Z,44.07
2023-05-04T13:34:16.016Z,44.19
2023-05-04T13:36:43.314Z,44.31
2023-05-04T13:39:10.586Z,44.39
2023-05-04T13:41:39.354Z,44.44
2023-05-04T13:44:06.966Z,44.28
2023-05-04T13:46:36.592Z,44.43
2023-05-04T13:49:03.893Z,44.39
2023-05-04T13:51:54.679Z,44.41
2023-05-04T13:54:21.836Z,44.38
2023-05-04T13:56:52.455Z,44.53
2023-05-04T13:59:22.660Z,44.58
2023-05-04T14:01:49.956Z,44.39
2023-05-04T14:04:17.209Z,44.05
2023-05-04T14:06:45.593Z,43.68
2023-05-04T14:09:16.123Z,43.44
2023-05-04T14:11:43.325Z,43.17
2023-05-04T14:14:10.729Z,43.02
2023-05-04T14:16:40.099Z,42.92
2023-05-04T14:19:07.772Z,42.70
2023-05-04T14:21:38.212Z,42.52
2023-05-04T14:24:05.497Z,42.35
2023-05-04T14:26:33.249Z,42.00
2023-05-04T14:29:00.640Z,41.68
2023-05-04T14:31:30.027Z,41.81
2023-05-04T14:33:57.293Z,41.78
2023-05-04T14:36:29.047Z,41.76
2023-05-04T14:38:56.381Z,41.72
2023-05-04T14:41:23.560Z,41.66
2023-05-04T14:43:50.683Z,41.41
2023-05-04T14:46:17.884Z,41.21
2023-05-04T14:48:45.002Z,41.26
2023-05-04T14:51:14.156Z,41.20
2023-05-04T14:53:41.557Z,41.17
2023-05-04T14:56:08.639Z,41.17
2023-05-04T14:58:36.725Z,41.13
2023-05-04T15:01:04.621Z,41.06
2023-05-04T15:03:32.033Z,41.00
2023-05-04T15:05:59.332Z,40.86
2023-05-04T15:08:26.920Z,40.78
2023-05-04T15:10:58.351Z,40.90
2023-05-04T15:13:26.181Z,40.82
2023-05-04T15:15:53.599Z,40.54
2023-05-04T15:18:21.506Z,40.61
2023-05-04T15:20:48.640Z,40.50
2023-05-04T15:23:16.959Z,40.31
2023-05-04T15:25:44.298Z,40.28
2023-05-04T15:28:12.172Z,40.12
2023-05-04T15:30:40.479Z,40.18
2023-05-04T15:33:08.313Z,39.97
2023-05-04T15:35:37.086Z,39.90
2023-05-04T15:38:04.787Z,39.84
2023-05-04T15:40:32.086Z,39.97
2023-05-04T15:42:59.284Z,40.05
2023-05-04T15:45:28.388Z,40.00
2023-05-04T15:47:55.821Z,39.98
2023-05-04T15:50:24.466Z,39.91
2023-05-04T15:52:52.957Z,39.78
2023-05-04T15:55:26.367Z,39.61
2023-05-04T15:57:54.680Z,39.57
2023-05-04T16:00:22.048Z,39.49
2023-05-04T16:02:49.233Z,39.57
2023-05-04T16:05:16.502Z,39.61
2023-05-04T16:07:45.502Z,39.36
2023-05-04T16:10:13.307Z,39.49
2023-05-04T16:12:43.961Z,39.39
2023-05-04T16:15:11.617Z,39.36
2023-05-04T16:17:38.716Z,39.27
2023-05-04T16:20:06.718Z,39.16
2023-05-04T16:22:34.537Z,39.24
2023-05-04T16:25:02.297Z,39.19
2023-05-04T16:27:29.477Z,39.15
2023-05-04T16:29:56.720Z,39.04
2023-05-04T16:32:23.943Z,39.03
2023-05-04T16:34:51.160Z,38.85
2023-05-04T16:37:19.071Z,38.94
2023-05-04T16:39:46.297Z,38.92
2023-05-04T16:42:13.454Z,38.78
2023-05-04T16:44:40.534Z,38.74
2023-05-04T16:47:07.672Z,38.93
2023-05-04T16:49:34.765Z,38.93
2023-05-04T16:52:02.393Z,38.64
2023-05-04T16:54:29.475Z,38.83
2023-05-04T16:56:56.694Z,38.67
2023-05-04T16:59:23.780Z,38.66
2023-05-04T17:01:51.195Z,38.52
2023-05-04T17:04:18.366Z,38.55
2023-05-04T17:06:45.917Z,38.55
2023-05-04T17:09:13.097Z,38.51
2023-05-04T17:11:40.237Z,38.33
2023-05-04T17:14:07.293Z,38.38
2023-05-04T17:16:34.549Z,38.19
2023-05-04T17:19:01.821Z,38.06
2023-05-04T17:21:28.898Z,37.97
2023-05-04T17:23:56.215Z,38.12
2023-05-04T17:26:23.486Z,37.97
2023-05-04T17:28:50.598Z,37.93
2023-05-04T17:31:17.870Z,38.08
2023-05-04T17:33:45.014Z,37.90
2023-05-04T17:36:12.458Z,37.97
2023-05-04T17:38:40.777Z,37.78
2023-05-04T17:41:10.002Z,37.45
2023-05-04T17:43:37.302Z,37.50
2023-05-04T17:46:04.652Z,37.44
2023-05-04T17:48:32.120Z,37.34
2023-05-04T17:51:03.704Z,37.50
2023-05-04T17:53:31.121Z,37.47
2023-05-04T17:55:58.330Z,37.31
2023-05-04T17:58:26.229Z,37.27
2023-05-04T18:01:24.039Z,37.45
2023-05-04T18:03:54.802Z,37.43
2023-05-04T18:13:53.920Z,37.31
2023-05-04T18:16:26.130Z,37.41
2023-05-04T18:19:26.619Z,37.17
2023-05-04T18:22:35.015Z,37.39
2023-05-04T18:25:05.849Z,37.23
2023-05-04T18:28:08.221Z,37.37
2023-05-04T18:30:43.584Z,37.20
2023-05-04T18:33:14.808Z,37.36
2023-05-04T18:39:04.175Z,37.21
2023-05-04T18:41:49.406Z,37.26
2023-05-04T18:44:33.386Z,37.14
2023-05-04T18:47:03.949Z,37.19
2023-05-04T18:49:32.965Z,37.19
2023-05-04T18:52:05.146Z,37.17
2023-05-04T18:54:42.198Z,36.90
2023-05-04T18:57:20.507Z,36.86
2023-05-04T18:59:47.719Z,37.07
2023-05-04T19:02:18.256Z,37.01
2023-05-04T19:04:47.327Z,36.84
2023-05-04T19:08:02.418Z,36.66
2023-05-04T19:10:32.238Z,36.69
